Time;durP1;ratioP1;P1;durP2;ratioP2;P2;SDS_P1;SDS_P2;PMS_P1;PMS_P2;Temp;Humidity;BMP_temperature;BMP_pressure;BME280_temperature;BME280_humidity;BME280_pressure;Samples;Min_cycle;Max_cycle;Signal;HPM_P1;HPM_P2
2021/04/05 00:00:09;;;;;;;23.35;8.73;;;;;;;;;;5074139;28;20040;-82
2021/04/05 00:02:35;;;;;;;25.15;9.00;;;;;;;;;;5072991;28;20032;-82
2021/04/05 00:05:01;;;;;;;25.88;9.50;;;;;;;;;;5089601;28;20033;-83
2021/04/05 00:07:28;;;;;;;23.45;9.15;;;;;;;;;;5089653;28;20102;-83
2021/04/05 00:09:54;;;;;;;24.05;9.30;;;;;;;;;;5089563;28;20048;-83
2021/04/05 00:12:21;;;;;;;26.30;10.23;;;;;;;;;;5073854;28;20037;-83
2021/04/05 00:14:47;;;;;;;25.10;9.07;;;;;;;;;;5089362;28;20040;-83
2021/04/05 00:17:13;;;;;;;23.55;9.15;;;;;;;;;;5089451;28;20083;-83
2021/04/05 00:19:40;;;;;;;32.65;10.35;;;;;;;;;;5072517;28;20053;-83
2021/04/05 00:22:07;;;;;;;28.92;9.98;;;;;;;;;;5088634;28;20449;-83
2021/04/05 00:24:33;;;;;;;27.02;9.05;;;;;;;;;;5089335;28;20062;-83
2021/04/05 00:26:59;;;;;;;24.42;9.02;;;;;;;;;;5073773;28;20037;-84
2021/04/05 00:29:25;;;;;;;24.83;9.05;;;;;;;;;;5089260;28;20044;-83
2021/04/05 00:31:51;;;;;;;23.27;9.70;;;;;;;;;;5073511;28;20047;-83
2021/04/05 00:34:17;;;;;;;25.42;10.43;;;;;;;;;;5073290;28;20387;-83
2021/04/05 00:36:44;;;;;;;28.50;9.38;;;;;;;;;;5089119;28;20111;-83
2021/04/05 00:39:11;;;;;;;27.60;8.95;;;;;;;;;;5088908;28;20063;-82
2021/04/05 00:41:37;;;;;;;23.98;9.30;;;;;;;;;;5089160;28;20040;-83
2021/04/05 00:44:03;;;;;;;23.17;9.02;;;;;;;;;;5088982;28;20090;-83
2021/04/05 00:46:29;;;;;;;25.60;9.70;;;;;;;;;;5088880;28;20036;-83
2021/04/05 00:48:55;;;;;;;24.48;8.85;;;;;;;;;;5088607;28;20561;-83
2021/04/05 00:51:22;;;;;;;28.70;9.65;;;;;;;;;;5071917;28;20040;-83
2021/04/05 00:53:48;;;;;;;23.08;9.73;;;;;;;;;;5073054;28;20035;-83
2021/04/05 00:56:16;;;;;;;22.70;9.95;;;;;;;;;;5088399;28;20477;-83
2021/04/05 00:58:42;;;;;;;29.52;9.85;;;;;;;;;;5088456;28;20451;-83
2021/04/05 01:01:09;;;;;;;27.85;9.85;;;;;;;;;;5071775;28;20484;-83
2021/04/05 01:03:36;;;;;;;28.70;10.25;;;;;;;;;;5072958;28;20387;-83
2021/04/05 01:06:03;;;;;;;23.25;9.73;;;;;;;;;;5072901;28;20116;-83
2021/04/05 01:08:29;;;;;;;28.33;10.13;;;;;;;;;;5072820;28;20036;-83
2021/04/05 01:10:55;;;;;;;32.70;10.43;;;;;;;;;;5088369;28;20040;-83
2021/04/05 01:13:21;;;;;;;31.58;10.30;;;;;;;;;;5088318;28;20468;-83
2021/04/05 01:15:47;;;;;;;27.70;8.88;;;;;;;;;;5072593;28;20063;-83
2021/04/05 01:18:14;;;;;;;35.95;9.55;;;;;;;;;;5088132;28;20083;-83
2021/04/05 01:20:40;;;;;;;31.38;10.27;;;;;;;;;;5088194;28;20083;-84
2021/04/05 01:23:06;;;;;;;28.10;9.68;;;;;;;;;;5088211;28;20054;-83
2021/04/05 01:25:32;;;;;;;30.45;10.13;;;;;;;;;;5088241;28;20044;-84
2021/04/05 01:27:58;;;;;;;25.23;9.38;;;;;;;;;;5072529;28;20193;-84
2021/04/05 01:30:37;;;;;;;40.17;10.52;;;;;;;;;;5088033;28;20287;-84
2021/04/05 01:33:07;;;;;;;30.48;9.85;;;;;;;;;;5087199;28;20058;-84
2021/04/05 01:35:36;;;;;;;30.55;8.52;;;;;;;;;;5071128;28;20033;-84
2021/04/05 01:38:03;;;;;;;30.15;9.98;;;;;;;;;;5072409;28;20484;-83
2021/04/05 01:40:29;;;;;;;28.45;9.85;;;;;;;;;;5087822;28;20040;-84
2021/04/05 01:42:55;;;;;;;29.75;9.43;;;;;;;;;;5087781;28;20041;-83
2021/04/05 01:45:21;;;;;;;29.35;10.13;;;;;;;;;;5087717;28;20041;-84
2021/04/05 01:47:47;;;;;;;25.60;9.95;;;;;;;;;;5073832;28;20062;-83
2021/04/05 01:50:13;;;;;;;26.92;8.95;;;;;;;;;;5091326;28;20080;-83
2021/04/05 01:52:42;;;;;;;30.23;9.50;;;;;;;;;;5091124;28;20539;-83
2021/04/05 01:55:09;;;;;;;24.25;9.63;;;;;;;;;;5091092;28;20032;-82
2021/04/05 01:57:36;;;;;;;24.10;8.77;;;;;;;;;;5074430;28;20051;-82
2021/04/05 02:00:06;;;;;;;26.08;8.80;;;;;;;;;;5074047;28;20131;-82
2021/04/05 02:02:33;;;;;;;27.38;8.57;;;;;;;;;;5074218;28;20036;-83
2021/04/05 02:04:59;;;;;;;26.30;8.73;;;;;;;;;;5090960;28;20043;-82
2021/04/05 02:07:25;;;;;;;30.48;9.50;;;;;;;;;;5074210;28;20120;-82
2021/04/05 02:09:51;;;;;;;29.95;9.20;;;;;;;;;;5090917;28;20062;-83
2021/04/05 02:12:17;;;;;;;27.85;9.13;;;;;;;;;;5090820;28;20480;-83
2021/04/05 02:14:43;;;;;;;25.90;8.00;;;;;;;;;;5090874;28;20081;-83
2021/04/05 02:17:09;;;;;;;24.02;8.32;;;;;;;;;;5092011;28;20044;-83
2021/04/05 02:19:35;;;;;;;27.55;7.65;;;;;;;;;;5091054;28;20044;-82
2021/04/05 02:22:01;;;;;;;20.33;7.07;;;;;;;;;;5090824;28;20043;-82
2021/04/05 02:24:27;;;;;;;22.98;7.70;;;;;;;;;;5090815;28;20047;-83
2021/04/05 02:26:53;;;;;;;21.92;7.65;;;;;;;;;;5090798;28;20403;-83
2021/04/05 02:29:19;;;;;;;22.10;7.55;;;;;;;;;;5073913;28;20061;-82
2021/04/05 02:31:45;;;;;;;27.70;7.78;;;;;;;;;;5090820;28;20036;-83
2021/04/05 02:34:12;;;;;;;22.85;6.80;;;;;;;;;;5090826;28;20040;-82
2021/04/05 02:36:39;;;;;;;25.33;7.00;;;;;;;;;;5090869;28;20105;-82
2021/04/05 02:39:09;;;;;;;28.45;7.78;;;;;;;;;;5090767;28;20040;-82
2021/04/05 02:41:36;;;;;;;22.70;7.70;;;;;;;;;;5090838;28;20035;-83
2021/04/05 02:44:02;;;;;;;25.10;7.38;;;;;;;;;;5091818;28;20042;-82
2021/04/05 02:46:29;;;;;;;28.23;6.90;;;;;;;;;;5095763;28;20479;-82
2021/04/05 02:48:56;;;;;;;22.98;7.13;;;;;;;;;;5095669;28;20056;-83
2021/04/05 02:51:22;;;;;;;23.38;6.57;;;;;;;;;;5094544;28;20032;-83
2021/04/05 02:53:51;;;;;;;21.20;6.95;;;;;;;;;;5095620;28;20036;-82
2021/04/05 02:56:18;;;;;;;24.83;7.03;;;;;;;;;;5077493;28;20067;-83
2021/04/05 02:58:46;;;;;;;22.30;6.47;;;;;;;;;;5077472;28;20043;-83
2021/04/05 03:01:12;;;;;;;18.83;6.00;;;;;;;;;;5095598;28;20422;-83
2021/04/05 03:03:38;;;;;;;21.17;7.50;;;;;;;;;;5094471;28;20398;-83
2021/04/05 03:06:05;;;;;;;19.42;7.18;;;;;;;;;;5094270;28;20496;-82
2021/04/05 03:08:31;;;;;;;21.40;6.20;;;;;;;;;;5077173;28;20124;-82
2021/04/05 03:10:57;;;;;;;22.15;6.63;;;;;;;;;;5095383;28;20562;-82
2021/04/05 03:13:27;;;;;;;19.65;5.93;;;;;;;;;;5095309;28;20064;-83
2021/04/05 03:15:53;;;;;;;18.65;5.85;;;;;;;;;;5094007;28;20103;-83
2021/04/05 03:18:20;;;;;;;19.70;6.18;;;;;;;;;;5093976;28;20118;-83
2021/04/05 03:20:46;;;;;;;20.00;6.43;;;;;;;;;;5077132;28;20076;-82
2021/04/05 03:23:12;;;;;;;21.55;7.40;;;;;;;;;;5093995;28;20079;-82
2021/04/05 03:25:38;;;;;;;22.10;6.57;;;;;;;;;;5093992;28;20446;-82
2021/04/05 03:28:04;;;;;;;20.77;6.20;;;;;;;;;;5095054;28;20043;-83
2021/04/05 03:30:32;;;;;;;19.92;6.03;;;;;;;;;;5076904;28;20040;-82
2021/04/05 03:33:16;;;;;;;21.38;6.10;;;;;;;;;;5076976;28;20043;-82
2021/04/05 03:35:43;;;;;;;25.02;7.10;;;;;;;;;;5076865;28;20067;-82
2021/04/05 03:38:10;;;;;;;27.77;6.75;;;;;;;;;;5093814;28;20040;-82
2021/04/05 03:40:36;;;;;;;24.75;6.80;;;;;;;;;;5093558;28;20490;-83
2021/04/05 03:43:04;;;;;;;19.40;6.55;;;;;;;;;;5076758;28;20039;-83
2021/04/05 03:45:41;;;;;;;24.25;6.90;;;;;;;;;;5076515;28;20040;-83
2021/04/05 03:48:14;;;;;;;22.40;6.05;;;;;;;;;;5076324;28;20090;-83
2021/04/05 03:50:47;;;;;;;17.95;4.45;;;;;;;;;;5076788;28;20172;-83
2021/04/05 03:53:13;;;;;;;12.93;3.50;;;;;;;;;;5076587;28;20071;-83
2021/04/05 03:55:40;;;;;;;13.38;3.10;;;;;;;;;;5075635;28;20062;-83
2021/04/05 03:58:07;;;;;;;10.93;2.38;;;;;;;;;;5093292;28;20036;-83
2021/04/05 04:00:34;;;;;;;13.52;2.40;;;;;;;;;;5093111;28;20090;-83
2021/04/05 04:03:01;;;;;;;13.82;2.38;;;;;;;;;;5093234;28;20485;-83
2021/04/05 04:05:30;;;;;;;8.70;1.92;;;;;;;;;;5094251;28;20040;-83
2021/04/05 04:08:06;;;;;;;12.93;2.42;;;;;;;;;;5076263;28;20090;-83
2021/04/05 04:10:32;;;;;;;11.52;1.77;;;;;;;;;;5076231;28;20067;-83
2021/04/05 04:12:58;;;;;;;13.10;2.40;;;;;;;;;;5076061;28;20110;-83
2021/04/05 04:15:24;;;;;;;7.45;2.42;;;;;;;;;;5075994;28;20518;-83
2021/04/05 04:17:50;;;;;;;10.68;2.10;;;;;;;;;;5076300;28;20044;-83
2021/04/05 04:20:17;;;;;;;9.13;1.70;;;;;;;;;;5092828;28;20063;-83
2021/04/05 04:22:46;;;;;;;9.30;1.40;;;;;;;;;;5093025;28;20084;-83
2021/04/05 04:25:13;;;;;;;3.97;1.30;;;;;;;;;;5076005;28;20040;-82
2021/04/05 04:27:39;;;;;;;8.75;1.35;;;;;;;;;;5092622;28;20036;-83
2021/04/05 04:30:06;;;;;;;9.00;1.30;;;;;;;;;;5075779;28;20068;-83
2021/04/05 04:32:32;;;;;;;8.77;1.15;;;;;;;;;;5092661;28;20067;-83
2021/04/05 04:34:58;;;;;;;6.00;1.02;;;;;;;;;;5092536;28;20070;-83
2021/04/05 04:37:24;;;;;;;5.75;0.70;;;;;;;;;;5092549;28;20036;-83
2021/04/05 04:39:50;;;;;;;1.50;0.80;;;;;;;;;;5092520;28;20086;-83
2021/04/05 04:42:16;;;;;;;5.78;0.60;;;;;;;;;;5093693;28;20040;-82
2021/04/05 04:44:42;;;;;;;2.63;0.45;;;;;;;;;;5075856;28;20047;-83
2021/04/05 04:47:08;;;;;;;3.33;0.60;;;;;;;;;;5092431;28;20066;-83
2021/04/05 04:49:34;;;;;;;1.88;0.50;;;;;;;;;;5092214;28;20127;-87
2021/04/05 04:52:00;;;;;;;1.13;0.77;;;;;;;;;;5075395;28;20123;-84
2021/04/05 04:54:26;;;;;;;5.20;0.82;;;;;;;;;;5075364;28;20391;-84
2021/04/05 04:56:52;;;;;;;3.17;0.40;;;;;;;;;;5092122;28;20062;-82
2021/04/05 04:59:18;;;;;;;2.13;0.60;;;;;;;;;;5093270;28;20414;-83
2021/04/05 05:01:45;;;;;;;2.97;0.50;;;;;;;;;;5092230;28;20048;-81
2021/04/05 05:04:12;;;;;;;3.47;0.50;;;;;;;;;;5075412;28;20134;-82
2021/04/05 05:06:38;;;;;;;5.10;0.68;;;;;;;;;;5092863;28;20097;-81
2021/04/05 05:09:05;;;;;;;2.45;0.60;;;;;;;;;;5093127;28;20407;-81
2021/04/05 05:11:31;;;;;;;3.00;1.02;;;;;;;;;;5092897;28;20036;-82
2021/04/05 05:13:57;;;;;;;5.28;0.80;;;;;;;;;;5091799;28;20090;-82
2021/04/05 05:16:24;;;;;;;4.35;0.73;;;;;;;;;;5074986;28;20087;-82
2021/04/05 05:18:51;;;;;;;3.00;1.27;;;;;;;;;;5074993;28;20403;-81
2021/04/05 05:21:23;;;;;;;6.05;1.02;;;;;;;;;;5091870;28;20048;-81
2021/04/05 05:23:49;;;;;;;3.33;0.68;;;;;;;;;;5091726;28;20082;-82
2021/04/05 05:26:15;;;;;;;2.20;0.40;;;;;;;;;;5091766;28;20032;-82
2021/04/05 05:28:41;;;;;;;1.15;0.50;;;;;;;;;;5091596;28;20044;-81
2021/04/05 05:31:07;;;;;;;1.30;0.38;;;;;;;;;;5091603;28;20040;-81
2021/04/05 05:33:34;;;;;;;1.27;0.40;;;;;;;;;;5091624;28;20036;-81
2021/04/05 05:36:00;;;;;;;0.57;0.30;;;;;;;;;;5092666;28;20175;-80
2021/04/05 05:38:26;;;;;;;1.63;0.47;;;;;;;;;;5091350;28;20032;-80
2021/04/05 05:40:53;;;;;;;1.98;0.40;;;;;;;;;;5092632;28;20096;-79
2021/04/05 05:43:36;;;;;;;3.00;0.60;;;;;;;;;;5091570;28;20036;-81
2021/04/05 05:46:16;;;;;;;2.20;0.47;;;;;;;;;;5091435;28;20122;-80
2021/04/05 05:48:42;;;;;;;2.00;0.73;;;;;;;;;;5074260;28;20062;-82
2021/04/05 05:51:11;;;;;;;1.65;0.47;;;;;;;;;;5092426;28;20050;-84
2021/04/05 05:53:43;;;;;;;2.33;0.40;;;;;;;;;;5074425;28;20036;-81
2021/04/05 05:56:09;;;;;;;4.90;0.60;;;;;;;;;;5074328;28;20039;-82
2021/04/05 05:58:45;;;;;;;3.90;1.00;;;;;;;;;;5092884;28;20040;-82
2021/04/05 06:01:14;;;;;;;3.45;0.50;;;;;;;;;;5092322;28;20063;-81
2021/04/05 06:03:51;;;;;;;5.35;0.60;;;;;;;;;;5091234;28;20810;-81
2021/04/05 06:06:19;;;;;;;6.35;1.05;;;;;;;;;;5091070;28;20043;-81
2021/04/05 06:09:06;;;;;;;6.35;0.90;;;;;;;;;;5091104;28;20052;-84
2021/04/05 06:11:55;;;;;;;4.38;0.70;;;;;;;;;;5091036;28;20548;-86
2021/04/05 06:14:28;;;;;;;5.30;1.00;;;;;;;;;;5066765;28;20381;-84
2021/04/05 06:17:05;;;;;;;3.25;0.85;;;;;;;;;;5072356;28;20476;-85
2021/04/05 06:19:54;;;;;;;6.72;1.27;;;;;;;;;;5091850;28;20121;-85
2021/04/05 06:22:20;;;;;;;7.75;1.02;;;;;;;;;;5065749;28;20078;-85
2021/04/05 06:25:02;;;;;;;5.30;1.00;;;;;;;;;;5088450;28;20032;-85
2021/04/05 06:27:28;;;;;;;8.03;0.73;;;;;;;;;;5077931;28;20047;-85
2021/04/05 06:30:16;;;;;;;6.15;1.40;;;;;;;;;;5095857;28;20475;-85
2021/04/05 06:32:56;;;;;;;4.05;0.65;;;;;;;;;;5094564;28;20028;-85
2021/04/05 06:35:26;;;;;;;4.40;0.98;;;;;;;;;;5077796;28;20047;-85
2021/04/05 06:37:56;;;;;;;5.10;0.90;;;;;;;;;;5095935;28;20107;-85
2021/04/05 06:40:23;;;;;;;12.88;1.30;;;;;;;;;;5094658;28;20042;-85
2021/04/05 06:42:49;;;;;;;5.88;0.90;;;;;;;;;;5094735;28;20036;-84
2021/04/05 06:45:34;;;;;;;8.10;1.20;;;;;;;;;;5095482;28;20062;-87
2021/04/05 06:48:02;;;;;;;15.30;1.30;;;;;;;;;;5095735;28;20514;-87
2021/04/05 06:50:50;;;;;;;6.55;1.33;;;;;;;;;;5095996;28;20036;-87
2021/04/05 06:53:35;;;;;;;6.38;1.20;;;;;;;;;;5077486;28;20142;-86
2021/04/05 06:56:03;;;;;;;9.95;1.20;;;;;;;;;;5095364;28;20039;-88
2021/04/05 06:58:35;;;;;;;7.03;1.30;;;;;;;;;;5077237;28;20043;-85
2021/04/05 07:01:14;;;;;;;9.00;1.70;;;;;;;;;;5094206;28;20039;-85
2021/04/05 07:03:46;;;;;;;11.68;2.28;;;;;;;;;;5091849;28;20048;-85
2021/04/05 07:06:28;;;;;;;8.07;1.17;;;;;;;;;;5076521;28;20496;-83
2021/04/05 07:08:59;;;;;;;10.30;1.50;;;;;;;;;;5095082;28;20055;-85
2021/04/05 07:11:32;;;;;;;10.32;1.10;;;;;;;;;;5077082;28;20035;-84
2021/04/05 07:14:17;;;;;;;10.88;1.20;;;;;;;;;;5095070;28;20032;-83
2021/04/05 07:16:57;;;;;;;7.78;1.30;;;;;;;;;;5094787;28;20055;-84
2021/04/05 07:19:23;;;;;;;10.63;1.17;;;;;;;;;;5076861;28;20032;-84
2021/04/05 07:22:28;;;;;;;6.40;1.27;;;;;;;;;;5095131;28;20487;-84
2021/04/05 07:25:05;;;;;;;7.20;1.30;;;;;;;;;;5052630;28;20048;-85
2021/04/05 07:27:47;;;;;;;15.07;1.85;;;;;;;;;;5035865;28;20118;-83
2021/04/05 07:30:21;;;;;;;10.18;1.27;;;;;;;;;;5062903;28;20080;-84
2021/04/05 07:32:51;;;;;;;7.55;1.00;;;;;;;;;;5093631;28;20051;-84
2021/04/05 07:35:30;;;;;;;6.25;1.02;;;;;;;;;;5091975;28;20558;-84
2021/04/05 07:38:03;;;;;;;8.75;1.30;;;;;;;;;;5076378;28;20084;-84
2021/04/05 07:40:47;;;;;;;5.32;0.85;;;;;;;;;;5076289;28;20036;-84
2021/04/05 07:43:18;;;;;;;6.15;1.20;;;;;;;;;;5076365;28;20471;-84
2021/04/05 07:45:49;;;;;;;4.07;1.27;;;;;;;;;;5076234;28;20044;-84
2021/04/05 07:48:27;;;;;;;9.68;1.02;;;;;;;;;;5093085;28;20082;-84
2021/04/05 07:50:56;;;;;;;4.68;0.80;;;;;;;;;;5093398;28;20052;-85
2021/04/05 07:53:25;;;;;;;4.10;0.50;;;;;;;;;;5076473;28;20048;-84
2021/04/05 07:55:51;;;;;;;5.72;1.17;;;;;;;;;;5076032;28;20119;-84
2021/04/05 07:58:47;;;;;;;4.53;0.70;;;;;;;;;;5093101;28;20115;-85
2021/04/05 08:01:15;;;;;;;3.97;0.60;;;;;;;;;;5080921;28;20291;-84
2021/04/05 08:04:01;;;;;;;5.72;0.70;;;;;;;;;;5076004;28;20044;-85
2021/04/05 08:06:32;;;;;;;2.88;0.30;;;;;;;;;;5093705;28;20044;-84
2021/04/05 08:09:03;;;;;;;2.55;0.50;;;;;;;;;;5092586;28;20046;-85
2021/04/05 08:11:32;;;;;;;3.80;1.63;;;;;;;;;;5075496;28;20492;-86
2021/04/05 08:14:24;;;;;;;7.03;0.90;;;;;;;;;;5093553;28;20032;-85
2021/04/05 08:16:54;;;;;;;2.75;0.77;;;;;;;;;;5090733;28;20050;-85
2021/04/05 08:19:23;;;;;;;7.32;0.80;;;;;;;;;;5093364;28;20039;-84
2021/04/05 08:21:58;;;;;;;8.48;1.65;;;;;;;;;;5092227;28;20124;-84
2021/04/05 08:24:27;;;;;;;6.05;0.98;;;;;;;;;;5092201;28;20032;-84
2021/04/05 08:27:00;;;;;;;9.75;1.60;;;;;;;;;;5075378;28;20040;-84
2021/04/05 08:29:34;;;;;;;10.75;1.30;;;;;;;;;;5092196;28;20130;-84
2021/04/05 08:32:19;;;;;;;6.45;1.42;;;;;;;;;;5075245;28;20126;-84
2021/04/05 08:35:04;;;;;;;6.47;1.10;;;;;;;;;;5093507;28;20040;-84
2021/04/05 08:37:36;;;;;;;6.82;1.10;;;;;;;;;;5075389;28;20056;-84
2021/04/05 08:40:23;;;;;;;9.20;1.52;;;;;;;;;;5093264;28;20039;-84
2021/04/05 08:42:55;;;;;;;7.88;1.70;;;;;;;;;;5091592;28;20064;-84
2021/04/05 08:45:25;;;;;;;5.87;1.13;;;;;;;;;;5092087;28;20032;-84
2021/04/05 08:47:56;;;;;;;7.85;1.42;;;;;;;;;;5075252;28;20076;-84
2021/04/05 08:50:23;;;;;;;13.65;2.15;;;;;;;;;;5074872;28;20044;-84
2021/04/05 08:52:50;;;;;;;8.57;2.05;;;;;;;;;;5093154;28;20387;-84
2021/04/05 08:55:20;;;;;;;7.97;1.40;;;;;;;;;;5091760;28;20040;-84
2021/04/05 08:57:54;;;;;;;12.25;1.42;;;;;;;;;;5075003;28;20043;-85
2021/04/05 09:00:20;;;;;;;13.25;1.60;;;;;;;;;;5091668;28;20036;-84
2021/04/05 09:02:48;;;;;;;11.27;1.88;;;;;;;;;;5091551;28;20165;-84
2021/04/05 09:05:20;;;;;;;12.20;1.75;;;;;;;;;;5091785;28;20048;-85
2021/04/05 09:07:46;;;;;;;13.75;2.63;;;;;;;;;;5074564;28;20055;-84
2021/04/05 09:10:12;;;;;;;15.45;2.30;;;;;;;;;;5074647;28;20534;-85
2021/04/05 09:12:40;;;;;;;8.52;1.52;;;;;;;;;;5091687;28;20085;-83
2021/04/05 09:15:21;;;;;;;12.40;1.75;;;;;;;;;;5091424;28;20047;-87
2021/04/05 09:18:05;;;;;;;11.27;1.98;;;;;;;;;;5074618;28;20047;-86
2021/04/05 09:20:50;;;;;;;4.80;1.35;;;;;;;;;;5074735;28;20047;-84
2021/04/05 09:23:28;;;;;;;10.25;1.10;;;;;;;;;;5092606;28;20101;-84
2021/04/05 09:25:57;;;;;;;5.93;1.27;;;;;;;;;;5091364;28;20032;-85
2021/04/05 09:28:23;;;;;;;10.32;1.77;;;;;;;;;;5092504;28;20459;-85
2021/04/05 09:30:49;;;;;;;6.47;1.00;;;;;;;;;;5092436;28;20036;-84
2021/04/05 09:33:19;;;;;;;7.53;1.20;;;;;;;;;;5074296;28;20044;-84
2021/04/05 09:35:48;;;;;;;5.60;1.25;;;;;;;;;;5071250;28;20036;-85
2021/04/05 09:38:20;;;;;;;6.43;1.42;;;;;;;;;;5091970;28;20398;-84
2021/04/05 09:40:46;;;;;;;8.57;1.35;;;;;;;;;;5073609;28;20047;-85
2021/04/05 09:43:42;;;;;;;8.45;1.15;;;;;;;;;;5074038;28;20395;-83
2021/04/05 09:46:17;;;;;;;8.70;1.50;;;;;;;;;;5065501;28;20355;-85
2021/04/05 09:48:47;;;;;;;6.72;1.65;;;;;;;;;;5091789;28;20058;-85
2021/04/05 09:51:13;;;;;;;7.30;1.50;;;;;;;;;;5090834;28;20069;-85
2021/04/05 09:53:58;;;;;;;13.68;1.70;;;;;;;;;;5072933;28;20028;-86
2021/04/05 09:56:24;;;;;;;8.43;1.17;;;;;;;;;;5091761;28;20040;-83
2021/04/05 09:59:03;;;;;;;4.60;0.80;;;;;;;;;;5075151;28;20040;-83
2021/04/05 10:01:30;;;;;;;4.18;0.70;;;;;;;;;;5074004;28;20093;-84
2021/04/05 10:03:56;;;;;;;9.05;1.20;;;;;;;;;;5073686;28;20441;-86
2021/04/05 10:06:25;;;;;;;5.47;1.35;;;;;;;;;;5090553;28;20041;-85
2021/04/05 10:08:51;;;;;;;5.03;0.70;;;;;;;;;;5073665;28;20036;-85
2021/04/05 10:11:17;;;;;;;1.67;0.60;;;;;;;;;;5090909;28;20096;-84
2021/04/05 10:13:50;;;;;;;6.35;0.90;;;;;;;;;;5091836;28;20071;-84
2021/04/05 10:16:16;;;;;;;3.95;0.75;;;;;;;;;;5090652;28;20036;-84
2021/04/05 10:18:46;;;;;;;4.13;0.85;;;;;;;;;;5090590;28;20518;-83
2021/04/05 10:21:12;;;;;;;4.53;1.13;;;;;;;;;;5090778;28;20040;-84
2021/04/05 10:23:38;;;;;;;7.13;0.80;;;;;;;;;;5090731;28;20032;-84
2021/04/05 10:26:04;;;;;;;6.00;1.10;;;;;;;;;;5090418;28;20036;-86
2021/04/05 10:28:31;;;;;;;4.43;0.85;;;;;;;;;;5064870;28;20036;-87
2021/04/05 10:30:58;;;;;;;6.22;0.88;;;;;;;;;;5053881;28;20105;-84
2021/04/05 10:33:44;;;;;;;4.43;0.70;;;;;;;;;;5063640;28;20506;-83
2021/04/05 10:36:11;;;;;;;3.38;0.90;;;;;;;;;;5090515;28;20063;-84
2021/04/05 10:38:37;;;;;;;7.47;1.15;;;;;;;;;;5074087;28;20146;-84
2021/04/05 10:41:05;;;;;;;7.60;1.20;;;;;;;;;;5071407;28;20499;-84
2021/04/05 10:43:41;;;;;;;4.60;1.10;;;;;;;;;;5036829;28;20071;-82
2021/04/05 10:46:13;;;;;;;3.40;0.70;;;;;;;;;;5036699;28;20051;-83
2021/04/05 10:48:42;;;;;;;4.25;0.80;;;;;;;;;;5033229;28;20049;-83
2021/04/05 10:51:19;;;;;;;3.58;0.55;;;;;;;;;;5033393;28;20071;-83
2021/04/05 10:53:45;;;;;;;3.88;0.57;;;;;;;;;;5050026;28;20494;-84
2021/04/05 10:56:11;;;;;;;2.78;0.68;;;;;;;;;;5049854;28;20386;-83
2021/04/05 10:58:44;;;;;;;3.80;0.75;;;;;;;;;;5033388;28;20098;-83
2021/04/05 11:01:10;;;;;;;1.95;0.30;;;;;;;;;;5052574;28;20124;-89
2021/04/05 11:03:38;;;;;;;2.63;0.60;;;;;;;;;;5068337;28;20048;-84
2021/04/05 11:06:06;;;;;;;5.70;0.80;;;;;;;;;;5072728;28;20044;-82
2021/04/05 11:08:34;;;;;;;3.45;0.70;;;;;;;;;;5075079;28;20258;-83
2021/04/05 11:11:07;;;;;;;2.47;0.50;;;;;;;;;;5091122;28;20044;-82
2021/04/05 11:13:36;;;;;;;8.05;1.10;;;;;;;;;;5070251;28;20049;-83
2021/04/05 11:16:07;;;;;;;6.72;1.70;;;;;;;;;;5053521;28;20068;-83
2021/04/05 11:18:33;;;;;;;5.43;2.22;;;;;;;;;;5053768;28;20048;-83
2021/04/05 11:20:59;;;;;;;10.75;2.10;;;;;;;;;;5068569;28;20086;-83
2021/04/05 11:23:25;;;;;;;8.52;2.25;;;;;;;;;;5090246;28;20032;-84
2021/04/05 11:25:52;;;;;;;7.43;2.10;;;;;;;;;;5073524;28;20548;-83
2021/04/05 11:28:23;;;;;;;8.90;1.60;;;;;;;;;;5073711;28;20037;-83
2021/04/05 11:30:50;;;;;;;5.38;1.85;;;;;;;;;;5073218;28;20463;-83
2021/04/05 11:33:19;;;;;;;6.82;2.33;;;;;;;;;;5070781;28;20033;-84
2021/04/05 11:35:45;;;;;;;6.45;2.40;;;;;;;;;;5073154;28;20119;-84
2021/04/05 11:38:12;;;;;;;7.60;1.50;;;;;;;;;;5088113;28;20115;-84
2021/04/05 11:40:38;;;;;;;5.07;1.20;;;;;;;;;;5089684;28;20037;-85
2021/04/05 11:43:06;;;;;;;5.88;1.15;;;;;;;;;;5089904;28;20067;-84
2021/04/05 11:45:32;;;;;;;2.78;0.68;;;;;;;;;;5089870;28;20033;-85
2021/04/05 11:47:58;;;;;;;6.20;1.48;;;;;;;;;;5089669;28;20515;-88
2021/04/05 11:50:26;;;;;;;4.95;1.15;;;;;;;;;;5069704;28;20029;-82
2021/04/05 11:52:53;;;;;;;3.92;0.73;;;;;;;;;;5053090;28;20064;-84
2021/04/05 11:55:33;;;;;;;7.07;1.38;;;;;;;;;;5052895;28;20044;-84
2021/04/05 11:58:01;;;;;;;7.00;1.27;;;;;;;;;;5080335;28;20052;-86
2021/04/05 12:00:31;;;;;;;5.80;1.15;;;;;;;;;;5089780;28;20064;-86
2021/04/05 12:03:00;;;;;;;7.20;1.70;;;;;;;;;;5089880;28;20047;-85
2021/04/05 12:05:27;;;;;;;5.00;1.13;;;;;;;;;;5073952;28;20036;-86
2021/04/05 12:07:56;;;;;;;6.70;1.30;;;;;;;;;;5072629;28;20085;-86
2021/04/05 12:10:26;;;;;;;4.15;1.30;;;;;;;;;;5089145;28;20117;-86
2021/04/05 12:12:53;;;;;;;7.57;1.20;;;;;;;;;;5089186;28;20036;-85
2021/04/05 12:15:20;;;;;;;9.80;1.10;;;;;;;;;;5089159;28;20041;-86
2021/04/05 12:17:49;;;;;;;6.90;1.20;;;;;;;;;;5088172;28;20051;-85
2021/04/05 12:20:15;;;;;;;7.30;0.95;;;;;;;;;;5089349;28;20520;-86
2021/04/05 12:22:41;;;;;;;6.95;0.98;;;;;;;;;;5084478;28;20504;-87
2021/04/05 12:25:08;;;;;;;2.83;0.90;;;;;;;;;;5072377;28;20040;-85
2021/04/05 12:27:36;;;;;;;8.00;1.10;;;;;;;;;;5068895;28;20043;-85
2021/04/05 12:30:04;;;;;;;7.70;0.85;;;;;;;;;;5052058;28;20044;-85
2021/04/05 12:32:31;;;;;;;5.00;0.70;;;;;;;;;;5064635;28;20506;-86
2021/04/05 12:34:58;;;;;;;1.27;0.50;;;;;;;;;;5068600;28;20049;-85
2021/04/05 12:37:24;;;;;;;3.97;0.80;;;;;;;;;;5071877;28;20056;-86
2021/04/05 12:39:50;;;;;;;3.17;0.55;;;;;;;;;;5071860;28;20187;-86
2021/04/05 12:42:16;;;;;;;2.25;0.57;;;;;;;;;;5088717;28;20045;-86
2021/04/05 12:44:46;;;;;;;3.40;0.60;;;;;;;;;;5071945;28;20045;-87
2021/04/05 12:47:12;;;;;;;5.47;0.90;;;;;;;;;;5088643;28;20047;-87
2021/04/05 12:49:47;;;;;;;4.70;0.63;;;;;;;;;;5071774;28;20527;-87
2021/04/05 12:52:20;;;;;;;5.03;0.73;;;;;;;;;;5058230;28;20078;-85
2021/04/05 12:54:49;;;;;;;3.15;0.70;;;;;;;;;;5058083;28;20060;-86
2021/04/05 12:57:16;;;;;;;5.35;1.25;;;;;;;;;;5055619;28;20033;-85
2021/04/05 12:59:42;;;;;;;3.75;0.45;;;;;;;;;;5047519;28;20036;-85
2021/04/05 13:02:11;;;;;;;3.53;0.57;;;;;;;;;;5067577;28;20059;-84
2021/04/05 13:04:51;;;;;;;5.15;0.68;;;;;;;;;;5067825;28;20434;-85
2021/04/05 13:07:18;;;;;;;4.63;0.80;;;;;;;;;;5077571;28;20062;-85
2021/04/05 13:09:58;;;;;;;6.28;0.60;;;;;;;;;;5070387;28;20045;-82
2021/04/05 13:12:29;;;;;;;4.88;0.70;;;;;;;;;;5072416;28;20101;-83
2021/04/05 13:15:03;;;;;;;3.60;1.00;;;;;;;;;;5085596;28;20116;-82
2021/04/05 13:17:30;;;;;;;5.18;1.10;;;;;;;;;;5055342;28;20052;-82
2021/04/05 13:19:58;;;;;;;4.25;0.90;;;;;;;;;;5034940;28;20489;-82
2021/04/05 13:22:25;;;;;;;5.95;0.88;;;;;;;;;;5053737;28;20261;-82
2021/04/05 13:24:57;;;;;;;5.13;0.60;;;;;;;;;;5081351;28;20037;-82
2021/04/05 13:27:24;;;;;;;3.78;0.77;;;;;;;;;;5081681;28;20032;-82
2021/04/05 13:29:50;;;;;;;3.85;0.77;;;;;;;;;;5087104;28;20037;-82
2021/04/05 13:32:16;;;;;;;4.38;0.88;;;;;;;;;;5072325;28;20048;-83
2021/04/05 13:34:42;;;;;;;4.43;0.57;;;;;;;;;;5070997;28;20032;-82
2021/04/05 13:37:10;;;;;;;4.63;0.63;;;;;;;;;;5050711;28;20051;-82
2021/04/05 13:39:36;;;;;;;5.35;0.75;;;;;;;;;;5050961;28;20045;-82
2021/04/05 13:42:03;;;;;;;5.70;0.80;;;;;;;;;;5051971;28;20041;-82
2021/04/05 13:44:30;;;;;;;4.15;0.80;;;;;;;;;;5052242;28;20083;-82
2021/04/05 13:46:59;;;;;;;4.75;0.70;;;;;;;;;;5050653;28;20519;-82
2021/04/05 13:49:31;;;;;;;3.85;0.70;;;;;;;;;;5035831;28;20055;-82
2021/04/05 13:51:57;;;;;;;4.13;0.73;;;;;;;;;;5059375;28;20415;-82
2021/04/05 13:54:23;;;;;;;5.10;0.60;;;;;;;;;;5086673;28;20029;-81
2021/04/05 13:57:00;;;;;;;3.35;0.50;;;;;;;;;;5058265;28;20044;-81
2021/04/05 13:59:27;;;;;;;5.38;0.70;;;;;;;;;;5050645;28;20041;-81
2021/04/05 14:01:53;;;;;;;2.25;0.60;;;;;;;;;;5067341;28;20059;-81
2021/04/05 14:04:19;;;;;;;3.72;0.57;;;;;;;;;;5050616;28;20041;-81
2021/04/05 14:06:56;;;;;;;3.33;0.73;;;;;;;;;;5050691;28;20064;-82
2021/04/05 14:09:24;;;;;;;6.45;0.70;;;;;;;;;;5033916;28;20124;-82
2021/04/05 14:11:54;;;;;;;3.38;0.47;;;;;;;;;;5058690;28;20219;-81
2021/04/05 14:14:22;;;;;;;5.13;0.50;;;;;;;;;;5070414;28;20032;-82
2021/04/05 14:16:49;;;;;;;3.70;0.60;;;;;;;;;;5087216;28;20040;-83
2021/04/05 14:19:41;;;;;;;3.65;0.47;;;;;;;;;;5067028;28;20099;-85
2021/04/05 14:22:12;;;;;;;1.67;0.30;;;;;;;;;;5050056;28;20048;-83
2021/04/05 14:24:43;;;;;;;3.22;0.47;;;;;;;;;;5086487;28;20383;-83
2021/04/05 14:27:09;;;;;;;1.83;0.40;;;;;;;;;;5049983;28;20053;-83
2021/04/05 14:29:57;;;;;;;3.33;0.70;;;;;;;;;;5054218;28;20443;-84
2021/04/05 14:32:23;;;;;;;3.22;0.80;;;;;;;;;;5067677;28;20044;-84
2021/04/05 14:34:51;;;;;;;2.53;0.63;;;;;;;;;;5086795;28;20540;-84
2021/04/05 14:37:28;;;;;;;2.33;0.65;;;;;;;;;;5083530;28;20060;-84
2021/04/05 14:39:55;;;;;;;3.63;0.70;;;;;;;;;;5067553;28;20037;-84
2021/04/05 14:42:22;;;;;;;2.63;0.50;;;;;;;;;;5087979;28;20037;-83
2021/04/05 14:44:48;;;;;;;3.63;0.63;;;;;;;;;;5086090;28;20033;-83
2021/04/05 14:47:15;;;;;;;3.33;0.52;;;;;;;;;;5072966;28;20059;-81
2021/04/05 14:49:41;;;;;;;4.28;1.08;;;;;;;;;;5090695;28;20102;-82
2021/04/05 14:52:09;;;;;;;3.05;0.60;;;;;;;;;;5075051;28;20506;-82